Time;durP1;ratioP1;P1;durP2;ratioP2;P2;SDS_P1;SDS_P2;PMS_P1;PMS_P2;Temp;Humidity;BMP_temperature;BMP_pressure;BME280_temperature;BME280_humidity;BME280_pressure;Samples;Min_cycle;Max_cycle;Signal;HPM_P1;HPM_P2
2022/04/08 00:01:46;;;;;;;1.30;1.10;;;;;;;11.68;62.49;93351.84;5013278;28;20232;-75
2022/04/08 00:04:14;;;;;;;3.50;1.83;;;;;;;11.59;63.08;93364.91;5013376;28;20227;-74
2022/04/08 00:06:40;;;;;;;2.05;1.58;;;;;;;11.48;63.29;93361.25;5013076;28;20549;-74
2022/04/08 00:09:07;;;;;;;1.60;1.20;;;;;;;11.39;63.75;93373.09;5013347;28;20209;-73
2022/04/08 00:11:35;;;;;;;1.75;1.40;;;;;;;11.23;65.82;93369.75;5012979;28;20213;-74
2022/04/08 00:14:04;;;;;;;3.15;1.50;;;;;;;11.15;65.76;93381.63;5019649;28;20236;-75
2022/04/08 00:16:31;;;;;;;4.18;1.25;;;;;;;11.19;65.24;93374.34;5033321;28;20469;-73
2022/04/08 00:18:58;;;;;;;2.67;1.17;;;;;;;11.31;64.33;93376.06;5032625;28;20314;-73
2022/04/08 00:21:25;;;;;;;2.25;1.35;;;;;;;11.22;64.92;93373.59;5032336;28;20295;-74
2022/04/08 00:23:52;;;;;;;1.50;1.30;;;;;;;11.14;64.45;93376.56;5027631;28;20197;-73
2022/04/08 00:26:19;;;;;;;2.08;1.27;;;;;;;11.18;64.08;93356.50;5013087;28;20683;-72
2022/04/08 00:28:46;;;;;;;4.35;1.50;;;;;;;11.45;62.56;93370.09;5012842;28;20233;-74
2022/04/08 00:31:15;;;;;;;1.45;1.20;;;;;;;11.43;63.22;93384.00;5012307;28;20220;-74
2022/04/08 00:33:42;;;;;;;1.30;1.20;;;;;;;11.54;61.71;93373.31;5012199;28;20232;-75
2022/04/08 00:36:09;;;;;;;2.10;1.30;;;;;;;11.62;61.80;93369.56;5012916;28;20205;-72
2022/04/08 00:38:36;;;;;;;1.58;1.35;;;;;;;11.67;61.40;93377.41;5020729;28;20617;-74
2022/04/08 00:41:03;;;;;;;1.40;1.17;;;;;;;11.70;61.42;93377.47;5031795;28;20200;-73
2022/04/08 00:43:35;;;;;;;1.65;1.45;;;;;;;11.59;61.96;93397.44;5032356;28;20659;-73
2022/04/08 00:46:02;;;;;;;2.20;1.13;;;;;;;11.42;62.85;93385.16;5030308;28;20204;-73
2022/04/08 00:48:31;;;;;;;3.22;1.30;;;;;;;11.30;63.73;93396.19;5012903;28;20591;-74
2022/04/08 00:50:59;;;;;;;1.40;0.85;;;;;;;11.13;64.62;93407.50;5015270;28;20552;-72
2022/04/08 00:53:26;;;;;;;1.02;0.75;;;;;;;11.05;64.38;93395.78;5032499;28;20224;-73
2022/04/08 00:55:54;;;;;;;2.65;1.50;;;;;;;10.89;65.22;93397.78;5032284;28;20214;-74
2022/04/08 00:58:21;;;;;;;1.52;1.00;;;;;;;10.98;64.15;93387.50;5032545;28;20211;-74
2022/04/08 01:00:48;;;;;;;1.77;1.08;;;;;;;11.00;63.77;93398.78;5014846;28;20222;-73
2022/04/08 01:03:15;;;;;;;3.10;1.58;;;;;;;11.02;64.33;93418.16;5011737;28;20611;-74
2022/04/08 01:05:43;;;;;;;1.73;1.52;;;;;;;10.97;64.20;93399.47;5012262;28;20208;-74
2022/04/08 01:08:11;;;;;;;0.98;0.93;;;;;;;10.83;64.72;93399.22;5012424;28;20209;-74
2022/04/08 01:10:39;;;;;;;2.15;1.55;;;;;;;10.74;65.48;93415.72;5012389;28;20235;-75
2022/04/08 01:13:06;;;;;;;1.60;1.30;;;;;;;11.03;62.93;93403.47;5011090;28;20220;-72
2022/04/08 01:15:33;;;;;;;1.90;1.50;;;;;;;11.19;62.56;93396.03;5011376;28;20699;-74
2022/04/08 01:18:00;;;;;;;3.33;1.10;;;;;;;10.96;63.46;93419.59;5012150;28;20211;-73
2022/04/08 01:20:27;;;;;;;2.28;1.50;;;;;;;11.04;62.74;93419.38;5012050;28;20235;-73
2022/04/08 01:22:56;;;;;;;2.45;1.65;;;;;;;11.00;63.19;93425.88;5011301;28;20209;-74
2022/04/08 01:25:24;;;;;;;2.42;1.40;;;;;;;10.96;63.52;93406.03;5028993;28;20657;-73
2022/04/08 01:27:51;;;;;;;3.95;1.80;;;;;;;10.87;63.67;93432.59;5031248;28;20205;-76
2022/04/08 01:30:18;;;;;;;1.35;1.05;;;;;;;11.00;63.28;93428.56;5011334;28;20205;-75
2022/04/08 01:32:45;;;;;;;2.30;1.45;;;;;;;10.92;63.79;93424.97;5011386;28;20213;-72
2022/04/08 01:35:13;;;;;;;1.55;1.05;;;;;;;10.88;64.21;93423.31;5011497;28;20240;-72
2022/04/08 01:37:40;;;;;;;2.95;1.40;;;;;;;10.77;64.36;93438.59;5011101;28;20213;-74
2022/04/08 01:40:09;;;;;;;3.05;1.30;;;;;;;10.74;64.60;93426.53;5011079;28;20205;-73
2022/04/08 01:42:37;;;;;;;3.65;1.70;;;;;;;10.76;64.01;93431.59;5011261;28;20213;-74
2022/04/08 01:45:04;;;;;;;2.95;1.33;;;;;;;10.54;65.47;93419.53;5019025;28;20228;-74
2022/04/08 01:47:32;;;;;;;1.65;1.38;;;;;;;10.50;64.90;93418.72;5031159;28;20258;-74
2022/04/08 01:49:58;;;;;;;1.77;1.38;;;;;;;10.55;64.84;93435.44;5030929;28;20204;-74
2022/04/08 01:52:25;;;;;;;2.28;1.40;;;;;;;10.54;64.95;93428.47;5030231;28;20228;-75
2022/04/08 01:54:52;;;;;;;1.05;0.90;;;;;;;10.64;64.03;93419.78;5030888;28;20591;-76
2022/04/08 01:57:23;;;;;;;4.70;1.60;;;;;;;11.10;61.90;93429.91;5015962;28;20201;-75
2022/04/08 01:59:52;;;;;;;2.10;1.00;;;;;;;11.24;60.73;93420.09;5011630;28;20201;-73
2022/04/08 02:02:19;;;;;;;1.13;0.82;;;;;;;11.24;61.10;93425.50;5011349;28;20498;-74
2022/04/08 02:04:46;;;;;;;2.78;1.42;;;;;;;11.00;62.59;93431.28;5011209;28;20204;-74
2022/04/08 02:07:13;;;;;;;2.65;1.30;;;;;;;10.85;63.18;93434.88;5011446;28;20205;-73
2022/04/08 02:09:40;;;;;;;1.30;1.05;;;;;;;10.89;62.32;93427.59;5011351;28;20664;-74
2022/04/08 02:12:07;;;;;;;1.33;1.10;;;;;;;11.10;61.04;93419.84;5011148;28;20282;-73
2022/04/08 02:14:35;;;;;;;2.20;1.10;;;;;;;11.16;59.74;93407.56;5010950;28;20647;-74
2022/04/08 02:17:03;;;;;;;1.20;1.10;;;;;;;11.38;59.17;93398.66;5011186;28;20200;-75
2022/04/08 02:19:30;;;;;;;0.85;0.80;;;;;;;11.25;60.07;93416.25;5010883;28;20208;-72
2022/04/08 02:21:58;;;;;;;0.85;0.85;;;;;;;11.24;59.44;93420.09;5010796;28;20201;-75
2022/04/08 02:24:25;;;;;;;2.65;1.20;;;;;;;11.40;58.48;93417.28;5011274;28;20707;-72
2022/04/08 02:26:52;;;;;;;1.10;0.60;;;;;;;11.34;58.93;93429.56;5011080;28;20208;-74
2022/04/08 02:29:19;;;;;;;1.98;1.25;;;;;;;11.02;61.58;93437.13;5011009;28;20296;-73
2022/04/08 02:31:46;;;;;;;1.70;1.23;;;;;;;10.91;61.01;93438.88;5010675;28;20557;-73
2022/04/08 02:34:14;;;;;;;2.92;1.45;;;;;;;11.06;59.99;93440.69;5010504;28;20627;-75
2022/04/08 02:36:41;;;;;;;1.08;0.93;;;;;;;11.17;59.50;93452.50;5015539;28;20224;-75
2022/04/08 02:39:08;;;;;;;1.10;1.00;;;;;;;11.10;60.48;93460.50;5030808;28;20630;-74
2022/04/08 02:41:35;;;;;;;1.10;0.98;;;;;;;11.09;60.15;93464.34;5030212;28;20208;-73
2022/04/08 02:44:02;;;;;;;1.23;1.10;;;;;;;10.94;61.44;93459.78;5030629;28;20298;-70
2022/04/08 02:46:29;;;;;;;2.22;1.00;;;;;;;10.90;60.95;93462.47;5023909;28;20221;-74
2022/04/08 02:48:56;;;;;;;1.17;0.93;;;;;;;10.84;61.76;93471.22;5010870;28;20209;-73
2022/04/08 02:51:24;;;;;;;2.33;1.20;;;;;;;10.67;62.29;93475.13;5010109;28;20260;-74
2022/04/08 02:53:51;;;;;;;1.75;1.00;;;;;;;10.64;62.91;93479.34;5011173;28;20263;-73
2022/04/08 02:56:18;;;;;;;1.30;1.20;;;;;;;10.50;63.54;93495.31;5030188;28;20231;-72
2022/04/08 02:58:48;;;;;;;1.88;1.17;;;;;;;10.50;63.25;93483.69;5029929;28;20215;-72
2022/04/08 03:01:16;;;;;;;1.75;1.17;;;;;;;10.57;62.48;93495.44;5019526;28;20765;-72
2022/04/08 03:03:43;;;;;;;1.10;0.82;;;;;;;10.66;62.08;93497.94;5021317;28;20205;-74
2022/04/08 03:06:10;;;;;;;2.03;1.10;;;;;;;10.65;61.86;93501.81;5025796;28;20669;-73
2022/04/08 03:08:38;;;;;;;2.05;1.30;;;;;;;10.69;61.66;93506.13;5028256;28;20310;-73
2022/04/08 03:11:05;;;;;;;2.00;1.30;;;;;;;10.84;60.69;93499.09;5023094;28;20215;-72
2022/04/08 03:13:32;;;;;;;4.43;1.20;;;;;;;10.72;61.61;93512.00;5021311;28;20216;-72
2022/04/08 03:15:59;;;;;;;2.83;1.17;;;;;;;10.54;62.10;93512.38;5025320;28;20233;-73
2022/04/08 03:18:26;;;;;;;1.92;1.02;;;;;;;10.46;62.50;93507.97;5028012;28;20203;-73
2022/04/08 03:20:53;;;;;;;1.30;1.02;;;;;;;10.39;62.69;93493.50;5023616;28;20227;-73
2022/04/08 03:23:20;;;;;;;2.22;1.20;;;;;;;10.46;61.75;93505.25;5021124;28;20203;-72
2022/04/08 03:25:48;;;;;;;1.13;1.00;;;;;;;10.46;62.01;93516.09;5024527;28;20209;-73
2022/04/08 03:28:15;;;;;;;3.40;1.00;;;;;;;10.36;62.12;93532.91;5027502;28;20727;-73
2022/04/08 03:30:42;;;;;;;1.90;1.20;;;;;;;10.36;62.10;93538.31;5024319;28;20200;-73
2022/04/08 03:33:09;;;;;;;1.50;0.90;;;;;;;10.49;61.23;93528.94;5020225;28;20212;-72
2022/04/08 03:35:36;;;;;;;1.08;0.90;;;;;;;10.47;61.60;93531.22;5023926;28;20711;-75
2022/04/08 03:38:04;;;;;;;1.40;0.85;;;;;;;10.63;60.03;93537.38;5027494;28;20239;-73
2022/04/08 03:40:31;;;;;;;1.10;0.75;;;;;;;10.67;60.62;93554.44;5024804;28;20212;-72
2022/04/08 03:42:59;;;;;;;0.40;0.40;;;;;;;10.60;60.98;93554.31;5020574;28;20216;-73
2022/04/08 03:45:26;;;;;;;0.95;0.70;;;;;;;10.69;60.13;93560.31;5033370;28;20725;-71
2022/04/08 03:47:52;;;;;;;1.05;0.82;;;;;;;10.64;60.74;93560.59;5029419;28;20204;-74
2022/04/08 03:50:19;;;;;;;0.68;0.60;;;;;;;10.72;60.04;93560.75;5025335;28;20208;-72
2022/04/08 03:52:46;;;;;;;0.93;0.73;;;;;;;10.81;59.44;93553.19;5019594;28;20228;-72
2022/04/08 03:55:14;;;;;;;1.10;0.80;;;;;;;10.79;60.03;93571.75;5022514;28;20264;-72
2022/04/08 03:57:40;;;;;;;1.48;0.68;;;;;;;10.94;59.02;93568.94;5027383;28;20205;-74
2022/04/08 04:00:10;;;;;;;2.03;0.90;;;;;;;10.84;59.11;93568.75;5025432;28;20265;-75
2022/04/08 04:02:37;;;;;;;2.42;0.95;;;;;;;10.95;58.89;93577.88;5020187;28;20235;-73
2022/04/08 04:05:04;;;;;;;0.77;0.75;;;;;;;10.98;58.69;93585.28;5021483;28;20211;-74
2022/04/08 04:07:34;;;;;;;2.03;1.30;;;;;;;11.06;58.39;93575.41;5031814;28;20219;-73
2022/04/08 04:10:02;;;;;;;1.90;0.88;;;;;;;11.07;58.51;93594.00;5032503;28;20604;-73
2022/04/08 04:12:28;;;;;;;1.08;0.75;;;;;;;11.12;58.24;93585.59;5018708;28;20211;-74
2022/04/08 04:14:55;;;;;;;1.52;0.90;;;;;;;11.44;57.17;93596.28;5020297;28;20260;-74
2022/04/08 04:17:27;;;;;;;1.33;0.98;;;;;;;11.78;56.26;93589.97;5020195;28;20204;-74
2022/04/08 04:19:54;;;;;;;3.83;0.85;;;;;;;12.27;54.82;93594.72;5032479;28;20231;-73
2022/04/08 04:22:20;;;;;;;1.60;1.00;;;;;;;12.60;53.86;93603.00;5024558;28;20884;-75
2022/04/08 04:24:47;;;;;;;1.08;0.90;;;;;;;12.84;53.08;93603.75;5026276;28;20204;-73
2022/04/08 04:27:14;;;;;;;1.48;1.08;;;;;;;13.06;52.69;93613.75;5032658;28;20219;-73
2022/04/08 04:29:41;;;;;;;1.83;1.30;;;;;;;13.17;52.76;93609.28;5032695;28;20335;-75
2022/04/08 04:32:09;;;;;;;2.47;1.15;;;;;;;13.26;51.91;93612.47;5032741;28;20618;-74
2022/04/08 04:34:38;;;;;;;1.80;0.90;;;;;;;13.54;51.36;93617.50;5032648;28;20208;-72
2022/04/08 04:37:08;;;;;;;2.75;1.30;;;;;;;13.88;50.77;93621.78;5024929;28;20201;-73
2022/04/08 04:39:35;;;;;;;1.42;1.20;;;;;;;14.17;50.11;93622.88;5012657;28;20209;-75
2022/04/08 04:42:02;;;;;;;1.60;1.35;;;;;;;14.23;49.31;93615.91;5012673;28;20204;-75
2022/04/08 04:44:30;;;;;;;3.38;1.42;;;;;;;14.82;48.31;93608.63;5015773;28;20646;-73
2022/04/08 04:46:57;;;;;;;2.83;1.10;;;;;;;15.10;47.47;93618.16;5022766;28;20209;-74
2022/04/08 04:49:24;;;;;;;1.92;1.50;;;;;;;15.41;46.56;93612.09;5012378;28;20212;-73
2022/04/08 04:51:53;;;;;;;3.08;1.77;;;;;;;15.41;45.89;93612.09;5011464;28;20236;-75
2022/04/08 04:54:20;;;;;;;1.27;1.17;;;;;;;15.75;45.56;93626.31;5012156;28;20201;-73
2022/04/08 04:56:47;;;;;;;2.10;1.25;;;;;;;15.37;46.14;93626.88;5012143;28;20240;-72
2022/04/08 04:59:13;;;;;;;1.60;1.50;;;;;;;15.75;45.21;93639.19;5012437;28;20208;-74
2022/04/08 05:01:40;;;;;;;1.52;1.33;;;;;;;15.35;44.51;93646.38;5012028;28;20205;-75
2022/04/08 05:04:07;;;;;;;1.90;1.10;;;;;;;15.23;45.21;93643.97;5012366;28;20200;-71
2022/04/08 05:06:34;;;;;;;2.30;1.70;;;;;;;15.55;44.77;93657.81;5012496;28;20205;-76
2022/04/08 05:09:05;;;;;;;1.90;1.63;;;;;;;15.86;44.79;93659.91;5012560;28;20296;-74
2022/04/08 05:11:32;;;;;;;2.53;1.52;;;;;;;16.35;43.11;93670.22;5012226;28;20233;-74
2022/04/08 05:14:00;;;;;;;1.95;1.50;;;;;;;16.96;42.69;93670.28;5012504;28;20216;-75
2022/04/08 05:16:27;;;;;;;1.95;1.50;;;;;;;17.25;41.03;93665.56;5011980;28;20703;-75
2022/04/08 05:18:55;;;;;;;3.92;1.90;;;;;;;16.57;42.30;93676.47;5025903;28;20209;-75
2022/04/08 05:21:22;;;;;;;1.50;1.40;;;;;;;17.11;40.76;93676.53;5011629;28;20232;-76
2022/04/08 05:23:49;;;;;;;3.33;2.30;;;;;;;18.58;39.21;93678.44;5025476;28;20197;-75
2022/04/08 05:26:18;;;;;;;2.55;1.80;;;;;;;18.78;38.03;93682.25;5011732;28;20595;-77
2022/04/08 05:28:45;;;;;;;2.95;1.77;;;;;;;18.08;38.64;93692.38;5011617;28;20226;-74
2022/04/08 05:31:12;;;;;;;4.18;1.50;;;;;;;17.22;39.71;93693.75;5011974;28;20209;-74
2022/04/08 05:33:39;;;;;;;2.35;2.03;;;;;;;17.91;38.88;93676.78;5011135;28;20205;-76
2022/04/08 05:36:06;;;;;;;4.32;2.10;;;;;;;18.53;38.14;93676.09;5010725;28;20239;-74
2022/04/08 05:38:33;;;;;;;2.47;1.88;;;;;;;18.62;37.75;93677.25;5011628;28;20624;-75
2022/04/08 05:41:00;;;;;;;2.58;1.85;;;;;;;18.61;37.45;93672.94;5011481;28;20632;-78
2022/04/08 05:43:29;;;;;;;2.25;1.63;;;;;;;19.56;36.47;93689.84;5011831;28;20280;-77
2022/04/08 05:45:55;;;;;;;2.85;1.67;;;;;;;20.32;35.14;93680.38;5025122;28;20193;-76
2022/04/08 05:48:23;;;;;;;2.88;1.83;;;;;;;19.88;35.34;93687.56;5011971;28;20205;-75
2022/04/08 05:50:50;;;;;;;3.40;1.60;;;;;;;19.95;34.68;93691.44;5011375;28;20299;-74
2022/04/08 05:53:17;;;;;;;2.75;1.48;;;;;;;21.06;33.48;93697.81;5011246;28;20217;-76
2022/04/08 05:55:45;;;;;;;2.75;1.83;;;;;;;22.04;31.60;93690.28;5011629;28;20654;-76
2022/04/08 05:58:12;;;;;;;2.72;1.70;;;;;;;20.07;34.15;93694.44;5011600;28;20205;-73
2022/04/08 06:00:40;;;;;;;3.50;1.50;;;;;;;20.55;34.60;93691.47;5011397;28;20278;-77
2022/04/08 06:03:07;;;;;;;2.35;1.25;;;;;;;20.14;33.93;93693.56;5010962;28;20699;-74
2022/04/08 06:05:35;;;;;;;2.60;1.70;;;;;;;21.33;32.73;93697.03;5011252;28;20228;-75
2022/04/08 06:08:02;;;;;;;3.35;1.65;;;;;;;20.15;33.92;93711.63;5011509;28;20205;-72
2022/04/08 06:10:28;;;;;;;1.63;1.50;;;;;;;20.54;33.75;93706.44;5011777;28;20209;-74
2022/04/08 06:12:56;;;;;;;2.35;1.70;;;;;;;21.30;32.79;93700.66;5010673;28;20259;-75
2022/04/08 06:15:23;;;;;;;3.28;1.95;;;;;;;21.66;31.60;93696.09;5027436;28;20260;-77
2022/04/08 06:17:51;;;;;;;2.95;1.63;;;;;;;22.41;30.63;93689.97;5030736;28;20258;-77
2022/04/08 06:20:20;;;;;;;1.85;1.35;;;;;;;20.96;32.33;93703.50;5015670;28;20193;-72
2022/04/08 06:22:48;;;;;;;2.53;1.73;;;;;;;20.55;34.05;93708.00;5025763;28;20279;-77
2022/04/08 06:25:18;;;;;;;2.90;1.80;;;;;;;21.66;32.86;93703.56;5023717;28;20530;-74
2022/04/08 06:27:45;;;;;;;2.42;1.40;;;;;;;21.02;32.16;93713.63;5025172;28;20196;-75
2022/04/08 06:30:14;;;;;;;3.00;1.58;;;;;;;22.69;30.87;93713.41;5022571;28;20261;-75
2022/04/08 06:32:43;;;;;;;2.75;1.65;;;;;;;22.07;30.91;93719.78;5024243;28;20202;-74
2022/04/08 06:35:12;;;;;;;1.83;1.40;;;;;;;21.46;30.86;93717.28;5010993;28;20236;-78
2022/04/08 06:37:40;;;;;;;3.00;1.90;;;;;;;21.63;31.07;93719.75;5024445;28;20200;-77
2022/04/08 06:40:08;;;;;;;5.95;3.22;;;;;;;20.75;39.52;93721.91;5019262;28;20250;-79
2022/04/08 06:42:36;;;;;;;10.32;3.65;;;;;;;18.96;42.58;93735.06;5023567;28;20192;-77
2022/04/08 06:45:04;;;;;;;2.53;2.03;;;;;;;19.80;36.28;93726.53;5018348;28;20232;-72
2022/04/08 06:47:31;;;;;;;3.40;1.55;;;;;;;19.24;35.00;93727.78;5016584;28;20209;-75
2022/04/08 06:49:58;;;;;;;2.53;1.50;;;;;;;20.21;33.93;93726.47;5019174;28;20212;-78
2022/04/08 06:52:26;;;;;;;3.15;1.60;;;;;;;20.13;33.93;93717.53;5029422;28;20722;-77
2022/04/08 06:54:53;;;;;;;3.58;1.80;;;;;;;20.77;33.23;93716.75;5023528;28;20208;-74
2022/04/08 06:57:20;;;;;;;2.70;1.90;;;;;;;19.58;34.42;93728.69;5017060;28;20239;-72
2022/04/08 06:59:47;;;;;;;3.53;1.73;;;;;;;20.83;33.31;93722.56;5022444;28;20213;-75
2022/04/08 07:02:13;;;;;;;1.35;1.25;;;;;;;19.89;33.59;93721.31;5024271;28;20216;-75
2022/04/08 07:04:40;;;;;;;2.22;1.60;;;;;;;20.16;33.70;93722.19;5018994;28;20211;-73
2022/04/08 07:07:07;;;;;;;3.45;1.58;;;;;;;20.06;34.19;93725.09;5017001;28;20711;-73
2022/04/08 07:09:36;;;;;;;3.63;1.40;;;;;;;20.64;33.22;93720.47;5022510;28;20208;-73
2022/04/08 07:12:03;;;;;;;10.05;1.90;;;;;;;20.52;33.20;93730.81;5023856;28;20212;-74
2022/04/08 07:14:30;;;;;;;3.25;1.70;;;;;;;21.51;31.57;93736.88;5010144;28;20691;-73
2022/04/08 07:16:57;;;;;;;2.90;1.50;;;;;;;20.84;32.89;93740.63;5010563;28;20236;-76
2022/04/08 07:19:24;;;;;;;3.58;1.27;;;;;;;20.10;33.55;93748.56;5010357;28;20734;-74
2022/04/08 07:21:51;;;;;;;2.72;1.52;;;;;;;20.78;33.36;93756.03;5026023;28;20564;-76
2022/04/08 07:24:17;;;;;;;3.58;1.67;;;;;;;20.68;33.35;93770.72;5020347;28;20213;-77
2022/04/08 07:26:47;;;;;;;4.18;1.50;;;;;;;19.06;34.63;93769.88;5009441;28;20205;-74
2022/04/08 07:29:14;;;;;;;2.30;1.63;;;;;;;18.51;36.59;93777.97;5010538;28;20212;-76
2022/04/08 07:31:41;;;;;;;2.70;1.35;;;;;;;18.83;37.04;93772.38;5010243;28;20459;-77
2022/04/08 07:34:08;;;;;;;5.00;1.60;;;;;;;18.66;37.04;93787.75;5010406;28;20259;-78
2022/04/08 07:36:35;;;;;;;2.83;1.60;;;;;;;18.86;37.20;93777.03;5010233;28;20723;-79
2022/04/08 07:39:02;;;;;;;1.90;1.33;;;;;;;18.36;37.73;93788.22;5010318;28;20751;-71
2022/04/08 07:41:28;;;;;;;4.55;2.00;;;;;;;18.03;38.11;93783.25;5028149;28;20606;-73
2022/04/08 07:43:57;;;;;;;2.95;1.48;;;;;;;17.66;39.26;93800.91;5029893;28;20236;-76
2022/04/08 07:46:24;;;;;;;3.28;1.60;;;;;;;17.72;38.86;93799.34;5024342;28;20224;-77
2022/04/08 07:48:51;;;;;;;2.97;1.58;;;;;;;17.13;39.30;93800.88;5013745;28;20287;-75
2022/04/08 07:51:17;;;;;;;3.33;1.45;;;;;;;17.94;38.79;93802.81;5013636;28;20696;-76
2022/04/08 07:53:45;;;;;;;3.97;1.52;;;;;;;17.71;39.20;93808.75;5013906;28;20197;-76
2022/04/08 07:56:11;;;;;;;3.42;1.75;;;;;;;17.71;40.91;93808.75;5013134;28;20295;-74
2022/04/08 07:58:38;;;;;;;2.05;1.50;;;;;;;17.36;40.75;93811.44;5013756;28;20665;-75
2022/04/08 08:01:08;;;;;;;4.90;1.50;;;;;;;17.66;39.94;93811.84;5013357;28;20607;-75
2022/04/08 08:03:35;;;;;;;2.67;1.60;;;;;;;17.48;39.98;93813.03;5013469;28;20205;-76
2022/04/08 08:06:03;;;;;;;3.55;1.95;;;;;;;17.44;39.86;93810.28;5020024;28;20266;-72
2022/04/08 08:08:30;;;;;;;2.67;1.80;;;;;;;16.85;41.21;93812.53;5033198;28;20208;-77
2022/04/08 08:10:57;;;;;;;2.22;1.50;;;;;;;17.10;41.09;93814.53;5033638;28;20263;-75
2022/04/08 08:13:24;;;;;;;3.13;1.73;;;;;;;17.40;41.24;93812.22;5019387;28;20663;-76
2022/04/08 08:15:51;;;;;;;4.03;1.40;;;;;;;17.65;39.09;93802.06;5013399;28;20217;-75
2022/04/08 08:18:21;;;;;;;3.85;1.60;;;;;;;17.83;39.58;93806.75;5013544;28;20291;-71
2022/04/08 08:20:49;;;;;;;7.15;1.67;;;;;;;17.77;40.58;93811.09;5013313;28;20652;-75
2022/04/08 08:23:16;;;;;;;13.30;2.00;;;;;;;18.26;40.13;93805.50;5013116;28;20240;-77
2022/04/08 08:25:44;;;;;;;2.85;1.20;;;;;;;18.01;39.24;93807.53;5033409;28;20287;-71
2022/04/08 08:28:11;;;;;;;2.83;1.60;;;;;;;17.53;39.94;93818.88;5032576;28;20207;-75
2022/04/08 08:30:38;;;;;;;7.05;1.48;;;;;;;17.39;40.36;93813.41;5033625;28;20212;-75
2022/04/08 08:33:06;;;;;;;1.92;1.30;;;;;;;17.05;40.46;93816.50;5032056;28;20296;-74
2022/04/08 08:35:35;;;;;;;3.10;1.70;;;;;;;17.75;39.47;93825.97;5032735;28;20201;-79
2022/04/08 08:38:02;;;;;;;6.60;1.30;;;;;;;17.85;39.49;93824.38;5016385;28;20237;-74
2022/04/08 08:40:31;;;;;;;2.15;1.30;;;;;;;18.05;39.60;93817.28;5013465;28;20297;-75
2022/04/08 08:42:59;;;;;;;4.18;1.40;;;;;;;17.86;39.48;93820.47;5012876;28;20308;-75
2022/04/08 08:45:29;;;;;;;4.53;1.60;;;;;;;18.18;39.21;93831.34;5024294;28;20309;-76
2022/04/08 08:48:01;;;;;;;4.22;1.60;;;;;;;17.72;39.94;93826.75;5014454;28;20216;-76
2022/04/08 08:50:29;;;;;;;3.15;1.63;;;;;;;17.75;39.62;93825.97;5012582;28;20233;-75
2022/04/08 08:53:00;;;;;;;2.00;1.55;;;;;;;18.07;39.37;93838.81;5012568;28;20260;-76
2022/04/08 08:55:27;;;;;;;3.35;1.70;;;;;;;18.27;39.33;93834.50;5012751;28;20267;-77
2022/04/08 08:57:54;;;;;;;4.55;1.63;;;;;;;18.24;38.52;93838.00;5011365;28;20287;-78
2022/04/08 09:00:23;;;;;;;2.40;1.20;;;;;;;17.87;40.00;93848.66;5011752;28;20208;-76
2022/04/08 09:02:51;;;;;;;1.83;1.30;;;;;;;17.88;39.40;93839.25;5012133;28;20216;-76
2022/04/08 09:05:20;;;;;;;3.72;1.25;;;;;;;18.73;39.02;93828.06;5012404;28;20676;-76
2022/04/08 09:07:55;;;;;;;2.50;1.58;;;;;;;18.60;39.11;93841.44;5012165;28;20634;-78
2022/04/08 09:10:29;;;;;;;2.53;1.30;;;;;;;17.66;39.72;93839.25;5012450;28;20322;-77
2022/04/08 09:12:56;;;;;;;5.32;1.30;;;;;;;18.35;39.56;93847.00;5012673;28;20220;-76
2022/04/08 09:15:23;;;;;;;3.03;1.30;;;;;;;18.40;39.26;93838.38;5012278;28;20216;-77
2022/04/08 09:17:51;;;;;;;4.47;1.40;;;;;;;18.20;39.43;93845.47;5012120;28;20268;-73
2022/04/08 09:20:19;;;;;;;2.30;1.17;;;;;;;18.25;38.80;93831.34;5011801;28;20232;-77
2022/04/08 09:22:55;;;;;;;1.63;1.13;;;;;;;18.35;39.72;93836.03;5012125;28;20217;-76
2022/04/08 09:25:27;;;;;;;3.65;1.50;;;;;;;18.72;38.69;93821.06;5029360;28;20283;-75
2022/04/08 09:27:57;;;;;;;4.47;1.50;;;;;;;18.91;39.04;93834.28;5032063;28;20232;-76
2022/04/08 09:30:25;;;;;;;2.83;1.48;;;;;;;19.02;37.87;93809.50;5031352;28;20236;-74
2022/04/08 09:32:54;;;;;;;3.30;1.60;;;;;;;18.29;39.03;93825.88;5031848;28;20240;-73
2022/04/08 09:35:24;;;;;;;3.75;1.25;;;;;;;18.51;38.33;93812.84;5031055;28;20204;-76
2022/04/08 09:38:01;;;;;;;1.58;1.35;;;;;;;19.09;38.55;93813.00;5031763;28;20294;-76
2022/04/08 09:40:37;;;;;;;3.05;1.48;;;;;;;19.14;37.86;93809.81;5032161;28;20207;-75
2022/04/08 09:43:05;;;;;;;2.55;1.45;;;;;;;19.50;37.67;93798.63;5031585;28;20290;-73
2022/04/08 09:45:32;;;;;;;2.58;1.40;;;;;;;19.20;38.53;93801.16;5031858;28;20260;-75
2022/04/08 09:47:59;;;;;;;3.08;1.40;;;;;;;18.79;40.29;93794.34;5012743;28;20267;-73
2022/04/08 09:50:27;;;;;;;3.22;1.13;;;;;;;18.26;41.08;93810.19;5022796;28;20224;-71
2022/04/08 09:52:55;;;;;;;4.63;1.52;;;;;;;18.26;42.01;93811.00;5031548;28;20282;-75
2022/04/08 09:55:23;;;;;;;2.03;1.67;;;;;;;18.31;42.11;93807.81;5031307;28;20201;-74
2022/04/08 09:58:00;;;;;;;2.03;1.52;;;;;;;18.01;43.54;93821.22;5031202;28;20264;-73
2022/04/08 10:00:29;;;;;;;1.83;1.25;;;;;;;17.54;43.59;93820.44;5030873;28;20207;-72
2022/04/08 10:02:58;;;;;;;3.80;1.70;;;;;;;17.77;43.60;93816.56;5030966;28;20699;-76
2022/04/08 10:05:26;;;;;;;2.47;1.70;;;;;;;18.02;42.94;93822.78;5030974;28;20610;-78
2022/04/08 10:07:55;;;;;;;3.63;1.38;;;;;;;17.73;43.00;93822.84;5031139;28;20251;-72
2022/04/08 10:10:26;;;;;;;3.88;1.50;;;;;;;17.99;41.28;93818.88;5030570;28;20725;-77
2022/04/08 10:13:28;;;;;;;3.05;1.70;;;;;;;18.11;42.82;93823.16;5031334;28;20258;-77
2022/04/08 10:16:03;;;;;;;2.78;1.60;;;;;;;18.35;41.60;93814.09;5031638;28;20203;-73
2022/04/08 10:18:34;;;;;;;2.97;1.60;;;;;;;18.51;42.18;93810.13;5030760;28;20301;-74
2022/04/08 10:21:01;;;;;;;3.88;1.58;;;;;;;18.73;42.42;93811.59;5030603;28;20294;-73
2022/04/08 10:23:37;;;;;;;1.85;1.40;;;;;;;18.48;41.51;93822.66;5028636;28;20270;-74
2022/04/08 10:26:05;;;;;;;3.25;1.67;;;;;;;17.89;43.46;93818.91;5010816;28;20638;-74
2022/04/08 10:28:37;;;;;;;2.03;1.40;;;;;;;18.28;41.64;93824.31;5010650;28;20648;-75
2022/04/08 10:31:15;;;;;;;3.33;1.40;;;;;;;18.18;41.30;93809.44;5010947;28;20209;-74
2022/04/08 10:33:47;;;;;;;3.75;1.40;;;;;;;18.60;41.28;93807.75;5011238;28;20208;-77
2022/04/08 10:36:14;;;;;;;2.38;1.60;;;;;;;18.76;41.00;93795.13;5010549;28;20205;-76
2022/04/08 10:38:41;;;;;;;2.95;1.60;;;;;;;19.11;41.62;93799.66;5010938;28;20612;-78
2022/04/08 10:41:09;;;;;;;3.55;1.65;;;;;;;19.26;41.40;93794.09;5010427;28;20208;-76
2022/04/08 10:43:44;;;;;;;2.28;1.52;;;;;;;19.10;40.45;93795.34;5011044;28;20303;-75
2022/04/08 10:46:12;;;;;;;4.25;1.50;;;;;;;19.06;41.51;93791.06;5027492;28;20294;-74
2022/04/08 10:48:40;;;;;;;5.38;1.70;;;;;;;19.30;41.22;93778.34;5030658;28;20214;-75
2022/04/08 10:51:10;;;;;;;2.88;1.52;;;;;;;19.68;39.72;93782.75;5030130;28;20235;-77
2022/04/08 10:53:41;;;;;;;6.53;1.73;;;;;;;19.52;40.21;93788.03;5030582;28;20208;-74
2022/04/08 10:56:10;;;;;;;2.97;1.60;;;;;;;19.31;38.61;93785.38;5030530;28;20652;-75
2022/04/08 10:58:43;;;;;;;6.25;1.67;;;;;;;19.82;39.96;93776.34;5030553;28;20713;-74
2022/04/08 11:01:19;;;;;;;2.25;1.30;;;;;;;20.00;36.14;93776.19;5030777;28;20628;-76
2022/04/08 11:03:53;;;;;;;3.17;1.20;;;;;;;20.51;35.71;93773.28;5030053;28;20286;-76
2022/04/08 11:06:20;;;;;;;2.95;1.38;;;;;;;20.99;34.12;93758.53;5030421;28;20204;-76
2022/04/08 11:08:47;;;;;;;1.13;1.02;;;;;;;21.18;32.69;93760.59;5030058;28;20211;-76
2022/04/08 11:11:14;;;;;;;2.92;1.20;;;;;;;21.22;33.83;93766.88;5030573;28;20212;-73
2022/04/08 11:13:42;;;;;;;2.85;1.10;;;;;;;21.10;32.95;93764.66;5030162;28;20211;-76
2022/04/08 11:16:09;;;;;;;2.13;1.65;;;;;;;21.16;32.37;93765.75;5030755;28;20294;-75
2022/04/08 11:18:37;;;;;;;2.72;1.17;;;;;;;21.35;32.65;93752.50;5029951;28;20251;-75
2022/04/08 11:21:04;;;;;;;2.35;1.40;;;;;;;21.46;33.42;93755.88;5020267;28;20279;-76
2022/04/08 11:23:33;;;;;;;1.90;1.00;;;;;;;21.62;32.56;93750.50;5016119;28;20575;-76
2022/04/08 11:26:00;;;;;;;2.78;1.27;;;;;;;21.49;31.77;93760.56;5034418;28;20239;-72
2022/04/08 11:28:27;;;;;;;3.28;1.27;;;;;;;21.18;32.22;93760.59;5034335;28;20200;-74
2022/04/08 11:30:59;;;;;;;4.38;1.00;;;;;;;21.45;31.42;93759.84;5033823;28;20211;-78
2022/04/08 11:33:27;;;;;;;2.13;1.17;;;;;;;21.14;31.23;93754.38;5029382;28;20807;-74
2022/04/08 11:36:01;;;;;;;2.28;1.10;;;;;;;20.63;31.13;93752.72;5033587;28;20220;-75
2022/04/08 11:38:30;;;;;;;1.33;0.93;;;;;;;20.81;31.08;93753.25;5033567;28;20709;-73